Time;durP1;ratioP1;P1;durP2;ratioP2;P2;SDS_P1;SDS_P2;PMS_P1;PMS_P2;Temp;Humidity;BMP_temperature;BMP_pressure;BME280_temperature;BME280_humidity;BME280_pressure;Samples;Min_cycle;Max_cycle;Signal;HPM_P1;HPM_P2
2024/04/12 00:01:49;;;;;;;2.60;1.73;;;24.70;43.20;;;;;;5426755;26;20002;-60
2024/04/12 00:04:16;;;;;;;2.75;1.77;;;24.70;43.20;;;;;;5429452;26;20068;-60
2024/04/12 00:06:50;;;;;;;3.35;1.92;;;24.60;43.20;;;;;;5425517;26;20057;-60
2024/04/12 00:09:18;;;;;;;2.67;1.75;;;24.60;43.20;;;;;;5432094;26;20466;-60
2024/04/12 00:11:48;;;;;;;2.50;1.75;;;24.60;43.30;;;;;;5433335;26;20014;-60
2024/04/12 00:14:15;;;;;;;2.70;1.80;;;24.60;43.20;;;;;;5431467;26;20004;-60
2024/04/12 00:16:43;;;;;;;3.67;1.75;;;24.60;43.30;;;;;;5429476;26;20025;-61
2024/04/12 00:19:18;;;;;;;3.05;1.90;;;24.50;43.20;;;;;;5433346;26;20040;-60
2024/04/12 00:21:46;;;;;;;2.65;1.55;;;24.60;43.30;;;;;;5430707;26;20028;-60
2024/04/12 00:24:13;;;;;;;3.00;1.70;;;24.50;43.20;;;;;;5428974;26;20004;-60
2024/04/12 00:26:49;;;;;;;2.28;1.60;;;24.50;43.30;;;;;;5429406;26;20373;-60
2024/04/12 00:29:36;;;;;;;3.05;1.70;;;24.50;43.20;;;;;;5425612;26;20022;-60
2024/04/12 00:32:05;;;;;;;2.60;1.88;;;24.50;43.30;;;;;;5428777;26;20003;-60
2024/04/12 00:34:37;;;;;;;3.00;1.80;;;24.50;43.30;;;;;;5430109;26;20343;-60
2024/04/12 00:37:07;;;;;;;3.10;2.00;;;24.50;43.30;;;;;;5425696;26;20014;-60
2024/04/12 00:39:39;;;;;;;2.92;1.90;;;24.50;43.30;;;;;;5428443;26;20013;-60
2024/04/12 00:42:09;;;;;;;2.38;1.58;;;24.50;43.40;;;;;;5426080;26;20440;-60
2024/04/12 00:44:42;;;;;;;3.35;1.70;;;24.50;43.40;;;;;;5428751;26;20447;-60
2024/04/12 00:47:15;;;;;;;2.10;1.50;;;24.50;43.40;;;;;;5432582;26;20003;-60
2024/04/12 00:49:49;;;;;;;2.78;1.80;;;24.40;43.30;;;;;;5431038;26;19996;-62
2024/04/12 00:52:28;;;;;;;2.30;1.50;;;24.40;43.30;;;;;;5429634;26;20434;-62
2024/04/12 00:55:02;;;;;;;2.08;1.42;;;24.40;43.30;;;;;;5433234;26;20478;-62
2024/04/12 00:57:28;;;;;;;2.35;1.60;;;24.40;43.40;;;;;;5428028;26;20076;-63
2024/04/12 00:59:55;;;;;;;2.53;1.60;;;24.40;43.40;;;;;;5431232;26;20011;-61
2024/04/12 01:02:22;;;;;;;2.60;1.52;;;24.40;43.40;;;;;;5431059;26;20457;-61
2024/04/12 01:04:50;;;;;;;2.50;1.70;;;24.40;43.40;;;;;;5430055;26;20024;-61
2024/04/12 01:07:18;;;;;;;2.60;1.55;;;24.40;43.40;;;;;;5428285;26;20458;-60
2024/04/12 01:09:43;;;;;;;2.80;1.60;;;24.40;43.40;;;;;;5427553;26;20400;-61
2024/04/12 01:12:16;;;;;;;3.08;2.00;;;24.30;43.40;;;;;;5428627;26;20003;-61
2024/04/12 01:14:46;;;;;;;2.60;1.50;;;24.30;43.40;;;;;;5427514;26;20004;-61
2024/04/12 01:17:12;;;;;;;2.47;1.70;;;24.30;43.50;;;;;;5426720;26;20452;-61
2024/04/12 01:19:38;;;;;;;2.50;1.60;;;24.30;43.40;;;;;;5430481;26;20036;-61
2024/04/12 01:22:04;;;;;;;2.60;1.75;;;24.30;43.40;;;;;;5430717;26;20000;-61
2024/04/12 01:24:33;;;;;;;3.15;1.58;;;24.30;43.50;;;;;;5428900;26;19999;-60
2024/04/12 01:27:01;;;;;;;2.63;1.60;;;24.30;43.50;;;;;;5425261;26;20000;-61
2024/04/12 01:29:27;;;;;;;2.38;1.52;;;24.30;43.50;;;;;;5429768;26;20017;-61
2024/04/12 01:31:53;;;;;;;2.65;1.55;;;24.30;43.50;;;;;;5429988;26;20000;-61
2024/04/12 01:34:20;;;;;;;2.78;1.60;;;24.20;43.50;;;;;;5427117;26;20009;-62
2024/04/12 01:36:45;;;;;;;2.30;1.65;;;24.20;43.50;;;;;;5441780;26;20018;-61
2024/04/12 01:39:11;;;;;;;2.33;1.50;;;24.20;43.50;;;;;;5427504;26;20404;-61
2024/04/12 01:41:38;;;;;;;2.40;1.60;;;24.20;43.50;;;;;;5430767;26;20007;-61
2024/04/12 01:44:06;;;;;;;2.88;1.45;;;24.20;43.50;;;;;;5423591;26;20350;-60
2024/04/12 01:46:35;;;;;;;2.72;1.75;;;24.20;43.50;;;;;;5425060;26;20024;-61
2024/04/12 01:49:04;;;;;;;3.53;1.60;;;24.20;43.50;;;;;;5427700;26;20125;-61
2024/04/12 01:51:34;;;;;;;2.13;1.50;;;24.20;43.60;;;;;;5429748;26;20312;-61
2024/04/12 01:54:17;;;;;;;;;;;24.20;43.60;;;;;;5428858;26;20018;-60
2024/04/12 01:56:50;;;;;;;1.98;1.48;;;24.20;44.10;;;;;;5429596;26;19953;-61
2024/04/12 01:59:22;;;;;;;2.67;1.55;;;24.10;43.50;;;;;;5426834;26;20003;-60
2024/04/12 02:01:52;;;;;;;2.17;1.50;;;24.10;43.60;;;;;;5424229;26;20522;-60
2024/04/12 02:04:18;;;;;;;2.17;1.50;;;24.10;44.10;;;;;;5429180;26;19998;-60
2024/04/12 02:06:48;;;;;;;2.30;1.50;;;24.10;43.60;;;;;;5428030;26;20002;-60
2024/04/12 02:09:14;;;;;;;2.00;1.50;;;24.10;43.60;;;;;;5428372;26;20018;-62
2024/04/12 02:11:47;;;;;;;3.20;1.85;;;24.10;43.60;;;;;;5429290;26;20375;-62
2024/04/12 02:14:13;;;;;;;2.20;1.30;;;24.10;43.60;;;;;;5426048;26;20015;-63
2024/04/12 02:16:42;;;;;;;2.55;1.50;;;24.10;43.70;;;;;;5423592;26;20003;-62
2024/04/12 02:19:12;;;;;;;2.40;1.40;;;24.10;43.70;;;;;;5431808;26;20013;-62
2024/04/12 02:21:38;;;;;;;2.08;1.38;;;24.10;44.20;;;;;;5430506;26;20280;-61
2024/04/12 02:24:11;;;;;;;2.15;1.52;;;24.10;44.30;;;;;;5434211;26;20075;-62
2024/04/12 02:26:40;;;;;;;2.85;1.52;;;24.00;43.70;;;;;;5425537;26;20011;-62
2024/04/12 02:29:06;;;;;;;2.58;1.80;;;24.00;43.70;;;;;;5432558;26;20504;-62
2024/04/12 02:31:35;;;;;;;3.00;1.60;;;24.00;43.70;;;;;;5432202;26;20003;-63
2024/04/12 02:34:01;;;;;;;2.17;1.63;;;24.00;43.70;;;;;;5427750;26;20565;-62
2024/04/12 02:36:31;;;;;;;2.30;1.50;;;24.00;43.70;;;;;;5429213;26;20076;-62
2024/04/12 02:38:57;;;;;;;2.40;1.50;;;24.00;43.70;;;;;;5422926;26;20422;-63
2024/04/12 02:41:24;;;;;;;2.63;1.70;;;24.00;43.70;;;;;;5425178;26;20010;-63
2024/04/12 02:43:52;;;;;;;2.88;1.70;;;24.00;43.70;;;;;;5424055;26;20003;-62
2024/04/12 02:46:23;;;;;;;3.42;1.85;;;24.00;43.70;;;;;;5428651;26;20010;-63
2024/04/12 02:48:49;;;;;;;2.67;1.42;;;23.90;43.70;;;;;;5425205;26;20000;-62
2024/04/12 02:51:20;;;;;;;2.15;1.45;;;23.90;43.70;;;;;;5429074;26;20015;-61
2024/04/12 02:53:48;;;;;;;2.70;1.60;;;23.90;44.30;;;;;;5427717;26;20035;-62
2024/04/12 02:56:14;;;;;;;2.35;1.60;;;23.90;44.30;;;;;;5429071;26;20300;-61
2024/04/12 02:58:42;;;;;;;3.03;1.60;;;23.90;44.30;;;;;;5429939;26;19995;-61
2024/04/12 03:01:13;;;;;;;2.13;1.40;;;23.90;43.80;;;;;;5427415;26;20016;-62
2024/04/12 03:03:45;;;;;;;2.20;1.50;;;23.90;43.80;;;;;;5430350;26;20175;-62
2024/04/12 03:06:24;;;;;;;2.35;1.50;;;23.90;43.80;;;;;;5430346;26;20008;-62
2024/04/12 03:08:53;;;;;;;;;;;23.90;43.80;;;;;;5430924;26;20006;-62
2024/04/12 03:11:21;;;;;;;2.58;1.52;;;23.90;43.70;;;;;;5430549;26;20001;-59
2024/04/12 03:14:04;;;;;;;2.23;1.40;;;23.90;43.80;;;;;;5424144;26;20032;-59
2024/04/12 03:16:31;;;;;;;2.30;1.60;;;23.90;43.80;;;;;;5430852;26;20006;-60
2024/04/12 03:18:58;;;;;;;2.50;1.60;;;23.80;43.80;;;;;;5430240;26;20459;-59
2024/04/12 03:21:30;;;;;;;2.25;1.60;;;23.80;43.80;;;;;;5428649;26;20450;-62
2024/04/12 03:23:57;;;;;;;2.17;1.40;;;23.80;43.80;;;;;;5424124;26;20010;-62
2024/04/12 03:26:24;;;;;;;2.20;1.30;;;23.80;43.80;;;;;;5427267;26;20063;-62
2024/04/12 03:28:54;;;;;;;2.33;1.48;;;23.80;43.80;;;;;;5423257;26;20068;-62
2024/04/12 03:31:20;;;;;;;2.00;1.30;;;23.80;43.80;;;;;;5424743;26;20000;-62
2024/04/12 03:33:46;;;;;;;2.25;1.40;;;23.80;43.80;;;;;;5427164;26;20010;-62
2024/04/12 03:41:47;;;;;;;1.90;1.27;;;23.80;43.80;;;;;;5427082;26;20014;-63
2024/04/12 03:44:13;;;;;;;;;;;23.70;43.80;;;;;;5425596;26;20083;-62
2024/04/12 03:46:49;;;;;;;2.08;1.33;;;23.70;43.80;;;;;;5424363;26;20534;-63
2024/04/12 03:49:23;;;;;;;1.52;1.20;;;23.70;43.80;;;;;;5423316;26;20479;-62
2024/04/12 03:51:56;;;;;;;1.88;1.35;;;23.70;43.80;;;;;;5428031;26;20039;-62
2024/04/12 03:54:24;;;;;;;2.08;1.33;;;23.70;43.80;;;;;;5431167;26;19999;-62
2024/04/12 03:56:52;;;;;;;2.22;1.30;;;23.70;43.80;;;;;;5426809;26;19999;-62
2024/04/12 03:59:19;;;;;;;1.83;1.30;;;23.70;43.80;;;;;;5427845;26;21095;-62
2024/04/12 04:01:48;;;;;;;2.05;1.40;;;23.70;43.90;;;;;;5430910;26;20458;-62
2024/04/12 04:04:18;;;;;;;2.25;1.38;;;23.70;43.90;;;;;;5423281;26;20043;-62
2024/04/12 04:06:54;;;;;;;1.98;1.30;;;23.70;43.90;;;;;;5427025;26;20008;-62
2024/04/12 04:09:21;;;;;;;1.98;1.30;;;23.70;43.90;;;;;;5439842;26;19995;-62
2024/04/12 04:11:54;;;;;;;1.58;1.20;;;23.70;43.90;;;;;;5424139;26;20004;-62
2024/04/12 04:14:21;;;;;;;2.20;1.27;;;23.70;43.90;;;;;;5424502;26;20358;-63
2024/04/12 04:16:57;;;;;;;1.50;1.10;;;23.60;43.90;;;;;;5426913;26;20018;-62
2024/04/12 04:19:34;;;;;;;1.90;1.27;;;23.70;44.00;;;;;;5429914;26;20068;-62
2024/04/12 04:22:39;;;;;;;2.05;1.30;;;23.60;44.00;;;;;;5426539;26;20010;-61
2024/04/12 04:25:07;;;;;;;1.92;1.20;;;23.70;44.00;;;;;;5427866;26;20368;-61
2024/04/12 04:27:34;;;;;;;1.53;1.20;;;23.60;44.00;;;;;;5427398;26;20003;-61
2024/04/12 04:30:00;;;;;;;1.92;1.23;;;23.60;44.00;;;;;;5421332;26;20017;-60
2024/04/12 04:32:26;;;;;;;2.00;1.30;;;23.60;44.10;;;;;;5425393;26;20022;-60
2024/04/12 04:35:05;;;;;;;2.10;1.23;;;23.60;44.10;;;;;;5426877;26;20670;-60
2024/04/12 04:37:37;;;;;;;1.42;1.10;;;23.60;44.10;;;;;;5424444;26;20029;-60
2024/04/12 04:40:09;;;;;;;1.70;1.17;;;23.60;44.10;;;;;;5425878;26;20000;-60
2024/04/12 04:42:39;;;;;;;1.92;1.20;;;23.60;44.10;;;;;;5429287;26;20447;-60
2024/04/12 04:45:08;;;;;;;1.67;1.17;;;23.50;44.60;;;;;;5426194;26;20458;-60
2024/04/12 04:47:34;;;;;;;;;;;23.60;44.20;;;;;;5424765;26;19999;-60
2024/04/12 04:50:00;;;;;;;1.77;1.17;;;23.50;44.10;;;;;;5427897;26;19936;-61
2024/04/12 04:52:37;;;;;;;2.13;1.23;;;23.50;44.10;;;;;;5426422;26;19999;-60
2024/04/12 04:55:06;;;;;;;2.28;1.40;;;23.50;44.10;;;;;;5428889;26;20034;-59
2024/04/12 04:57:35;;;;;;;1.70;1.20;;;23.50;44.10;;;;;;5432488;26;20081;-60
2024/04/12 05:00:08;;;;;;;2.28;1.50;;;23.50;44.20;;;;;;5421447;26;20368;-60
2024/04/12 05:02:39;;;;;;;1.88;1.25;;;23.50;44.20;;;;;;5429900;26;20003;-61
2024/04/12 05:05:05;;;;;;;2.20;1.40;;;23.50;44.20;;;;;;5431692;26;20455;-60
2024/04/12 05:07:34;;;;;;;2.35;1.27;;;23.50;44.20;;;;;;5431223;26;20048;-60
2024/04/12 05:10:14;;;;;;;2.33;1.30;;;23.50;44.20;;;;;;5430849;26;20532;-60
2024/04/12 05:12:40;;;;;;;1.75;1.10;;;23.50;44.20;;;;;;5430013;26;20430;-60
2024/04/12 05:15:48;;;;;;;1.90;1.10;;;23.50;44.20;;;;;;5426876;26;20010;-61
2024/04/12 05:18:03;;;;;;;2.00;1.20;;;23.50;44.20;;;;;;5432812;26;20004;-60
2024/04/12 05:20:39;;;;;;;2.28;1.20;;;23.50;44.20;;;;;;5431527;26;20011;-60
2024/04/12 05:23:19;;;;;;;2.08;1.20;;;23.50;44.20;;;;;;5430880;26;20542;-60
2024/04/12 05:25:46;;;;;;;1.95;1.20;;;23.40;44.10;;;;;;5427118;26;20512;-59
2024/04/12 05:28:12;;;;;;;2.10;1.30;;;23.40;44.20;;;;;;5433574;26;20096;-59
2024/04/12 05:30:42;;;;;;;2.22;1.33;;;23.50;44.60;;;;;;5428632;26;20080;-60
2024/04/12 05:33:10;;;;;;;1.98;1.20;;;23.40;44.40;;;;;;5434087;26;19995;-59
2024/04/12 05:35:37;;;;;;;2.05;1.05;;;23.50;44.40;;;;;;5428234;26;20071;-59
2024/04/12 05:38:09;;;;;;;1.75;1.10;;;23.40;44.60;;;;;;5430708;26;20027;-59
2024/04/12 05:40:51;;;;;;;1.73;1.10;;;23.40;44.20;;;;;;5424931;26;20010;-60
2024/04/12 05:43:21;;;;;;;2.13;1.20;;;23.40;44.20;;;;;;5429774;26;20014;-60
2024/04/12 05:45:49;;;;;;;1.70;1.20;;;23.40;44.70;;;;;;5426468;26;20007;-61
2024/04/12 05:48:16;;;;;;;1.85;1.30;;;23.40;44.20;;;;;;5427685;26;20072;-60
2024/04/12 05:50:46;;;;;;;1.30;1.00;;;23.40;44.20;;;;;;5425574;26;20011;-60
2024/04/12 05:53:13;;;;;;;1.92;1.10;;;23.40;44.20;;;;;;5428144;26;20367;-60
2024/04/12 05:55:44;;;;;;;2.35;1.30;;;23.40;44.20;;;;;;5432289;26;20002;-61
2024/04/12 05:58:14;;;;;;;1.90;1.20;;;23.40;44.20;;;;;;5431458;26;20545;-60
2024/04/12 06:00:41;;;;;;;1.58;1.00;;;23.40;44.20;;;;;;5427330;26;21033;-60
2024/04/12 06:03:14;;;;;;;1.38;1.00;;;23.40;44.20;;;;;;5427559;26;20412;-61
2024/04/12 06:05:57;;;;;;;1.58;1.20;;;23.40;44.20;;;;;;5430192;26;20990;-60
2024/04/12 06:08:23;;;;;;;1.85;1.20;;;23.40;44.20;;;;;;5430546;26;20013;-60
2024/04/12 06:10:50;;;;;;;1.95;1.10;;;23.40;44.20;;;;;;5425532;26;19999;-60
2024/04/12 06:13:17;;;;;;;1.42;1.00;;;23.40;44.20;;;;;;5427456;26;20030;-60
2024/04/12 06:15:43;;;;;;;3.28;1.85;;;23.40;44.80;;;;;;5426879;26;20003;-61
2024/04/12 06:18:10;;;;;;;1.48;0.90;;;23.40;44.30;;;;;;5429249;26;20112;-61
2024/04/12 06:20:36;;;;;;;1.90;1.20;;;23.30;44.30;;;;;;5426363;26;20525;-60
2024/04/12 06:23:06;;;;;;;1.67;1.20;;;23.30;44.30;;;;;;5425964;26;20041;-60
2024/04/12 06:25:47;;;;;;;1.70;1.05;;;23.30;44.30;;;;;;5428076;26;20439;-60
2024/04/12 06:28:14;;;;;;;1.90;1.17;;;23.40;44.30;;;;;;5428401;26;20484;-61
2024/04/12 06:30:45;;;;;;;3.28;1.17;;;23.30;44.80;;;;;;5428397;26;20050;-60
2024/04/12 06:33:19;;;;;;;3.10;1.20;;;23.30;44.30;;;;;;5396260;26;20011;-60
2024/04/12 06:35:45;;;;;;;1.60;1.15;;;23.30;44.40;;;;;;5426773;26;20412;-61
2024/04/12 06:38:17;;;;;;;1.58;1.10;;;23.30;44.40;;;;;;5427820;26;20072;-60
2024/04/12 06:40:53;;;;;;;1.95;1.10;;;23.30;44.40;;;;;;5427514;26;20029;-62
2024/04/12 06:43:20;;;;;;;1.55;1.00;;;23.30;44.40;;;;;;5426745;26;19999;-62
2024/04/12 06:46:00;;;;;;;3.25;1.60;;;23.30;44.40;;;;;;5425837;26;20308;-62
2024/04/12 06:48:26;;;;;;;1.40;1.02;;;23.30;44.40;;;;;;5425143;26;20001;-61
2024/04/12 06:50:54;;;;;;;1.45;1.02;;;23.30;44.40;;;;;;5432392;26;20021;-60
2024/04/12 06:53:21;;;;;;;1.30;1.00;;;23.30;44.40;;;;;;5428909;26;20462;-60
2024/04/12 06:55:49;;;;;;;2.00;1.17;;;23.30;44.40;;;;;;5428358;26;20071;-61
2024/04/12 06:58:18;;;;;;;1.73;1.20;;;23.30;44.50;;;;;;5428974;26;20014;-60
2024/04/12 07:00:53;;;;;;;1.55;1.00;;;23.30;44.50;;;;;;5427734;26;20027;-60
2024/04/12 07:03:22;;;;;;;2.85;1.20;;;23.20;44.40;;;;;;5430114;26;20080;-60
2024/04/12 07:05:53;;;;;;;1.73;1.13;;;23.20;44.40;;;;;;5433882;26;20003;-61
2024/04/12 07:08:21;;;;;;;1.92;1.20;;;23.20;44.40;;;;;;5427384;26;20111;-61
2024/04/12 07:10:49;;;;;;;1.33;1.02;;;23.30;44.50;;;;;;5427438;26;20011;-61
2024/04/12 07:13:16;;;;;;;1.60;1.10;;;23.20;44.50;;;;;;5428848;26;20013;-60
2024/04/12 07:15:45;;;;;;;1.77;1.17;;;23.20;44.50;;;;;;5422932;26;20024;-60
2024/04/12 07:18:11;;;;;;;1.63;1.10;;;23.20;44.50;;;;;;5429198;26;20229;-60
2024/04/12 07:20:40;;;;;;;1.33;1.10;;;23.20;44.50;;;;;;5425861;26;20228;-61
2024/04/12 07:23:10;;;;;;;1.63;1.05;;;23.20;44.50;;;;;;5426041;26;20011;-60
2024/04/12 07:25:39;;;;;;;1.13;1.00;;;23.20;44.50;;;;;;5427643;26;20419;-60
2024/04/12 07:28:08;;;;;;;1.97;1.33;;;23.20;45.00;;;;;;5429669;26;20400;-60
2024/04/12 07:30:33;;;;;;;2.17;1.20;;;23.20;44.50;;;;;;5420246;26;20006;-60
2024/04/12 07:32:59;;;;;;;1.50;1.10;;;23.20;44.50;;;;;;5429292;26;20003;-61
2024/04/12 07:35:26;;;;;;;1.45;1.10;;;23.20;44.50;;;;;;5428141;26;20018;-61
2024/04/12 07:37:59;;;;;;;2.22;1.10;;;23.20;44.50;;;;;;5425529;26;20418;-61
2024/04/12 07:40:30;;;;;;;1.13;0.90;;;23.20;44.50;;;;;;5429063;26;20003;-61
2024/04/12 07:42:57;;;;;;;1.88;1.20;;;23.20;44.50;;;;;;5427222;26;20077;-61
2024/04/12 07:45:25;;;;;;;1.63;1.15;;;23.20;44.50;;;;;;5428017;26;20010;-61
2024/04/12 07:47:53;;;;;;;1.90;1.10;;;23.20;44.50;;;;;;5425352;26;20003;-61
2024/04/12 07:50:28;;;;;;;1.67;1.17;;;23.20;45.00;;;;;;5427926;26;20014;-60
2024/04/12 07:53:10;;;;;;;1.15;0.80;;;23.20;44.50;;;;;;5431969;26;20431;-60
2024/04/12 07:55:37;;;;;;;1.67;1.13;;;23.20;44.50;;;;;;5427920;26;20039;-60
2024/04/12 07:58:08;;;;;;;1.60;1.05;;;23.20;44.50;;;;;;5426922;26;20023;-60
2024/04/12 08:00:45;;;;;;;1.30;0.90;;;23.20;44.50;;;;;;5420138;26;20000;-61
2024/04/12 08:03:16;;;;;;;1.63;1.00;;;23.20;44.50;;;;;;5424995;26;20011;-61
2024/04/12 08:08:43;;;;;;;1.95;1.10;;;23.20;44.50;;;;;;5426026;26;20425;-61
2024/04/12 08:11:31;;;;;;;1.85;1.10;;;23.20;44.50;;;;;;5428951;26;19998;-61
2024/04/12 08:14:05;;;;;;;1.45;1.05;;;23.10;44.50;;;;;;5426834;26;20004;-60
2024/04/12 08:16:35;;;;;;;1.77;1.10;;;23.20;44.50;;;;;;5427315;26;19999;-60
2024/04/12 08:19:21;;;;;;;1.30;1.00;;;23.20;44.60;;;;;;5423783;26;20033;-61
2024/04/12 08:21:54;;;;;;;1.65;1.05;;;23.20;44.60;;;;;;5429723;26;20373;-60
2024/04/12 08:24:22;;;;;;;1.45;1.02;;;23.20;44.60;;;;;;5429478;26;20031;-61
2024/04/12 08:26:51;;;;;;;1.30;0.93;;;23.20;44.60;;;;;;5428518;26;20003;-60
2024/04/12 08:29:26;;;;;;;1.05;0.82;;;23.20;44.60;;;;;;5430155;26;20413;-61
2024/04/12 08:34:49;;;;;;;1.45;1.00;;;23.10;44.50;;;;;;5432350;26;20007;-60
2024/04/12 08:37:16;;;;;;;1.30;1.10;;;23.20;44.60;;;;;;5432917;26;20044;-60
2024/04/12 08:39:44;;;;;;;1.38;0.90;;;23.10;44.50;;;;;;5432489;26;20003;-60
2024/04/12 08:42:14;;;;;;;1.33;1.00;;;23.20;44.60;;;;;;5428935;26;20000;-61
2024/04/12 08:44:43;;;;;;;;;;;23.10;44.60;;;;;;5431268;26;20366;-61
2024/04/12 08:47:16;;;;;;;1.50;0.88;;;23.10;44.60;;;;;;5428091;26;19925;-61
2024/04/12 08:49:48;;;;;;;1.40;1.00;;;23.10;44.50;;;;;;5431056;26;20734;-61
2024/04/12 08:52:28;;;;;;;1.40;1.10;;;23.10;44.60;;;;;;5429920;26;20046;-61
2024/04/12 08:54:59;;;;;;;1.30;1.00;;;23.10;44.60;;;;;;5428934;26;20457;-61
2024/04/12 08:57:33;;;;;;;1.33;1.00;;;23.10;44.60;;;;;;5429429;26;20014;-61
2024/04/12 08:59:59;;;;;;;1.77;1.00;;;23.10;44.60;;;;;;5425009;26;20418;-61
2024/04/12 09:02:31;;;;;;;1.80;1.10;;;23.10;44.60;;;;;;5426807;26;19998;-61
2024/04/12 09:04:57;;;;;;;1.20;1.00;;;23.10;44.60;;;;;;5430808;26;19998;-62
2024/04/12 09:07:26;;;;;;;1.52;1.10;;;23.10;44.60;;;;;;5423508;26;20319;-61
2024/04/12 09:09:56;;;;;;;;;;;23.10;44.60;;;;;;5427521;26;20068;-61
2024/04/12 09:12:24;;;;;;;1.50;0.98;;;23.10;44.60;;;;;;5431154;26;19924;-61
2024/04/12 09:14:53;;;;;;;1.10;0.82;;;23.10;44.60;;;;;;5429225;26;19999;-61
2024/04/12 09:17:25;;;;;;;1.38;1.00;;;23.10;44.70;;;;;;5428333;26;20328;-61
2024/04/12 09:19:52;;;;;;;1.58;1.10;;;23.10;44.60;;;;;;5431793;26;19995;-61
2024/04/12 09:22:18;;;;;;;1.35;1.02;;;23.10;44.70;;;;;;5430567;26;20035;-61
2024/04/12 09:24:47;;;;;;;1.30;1.05;;;23.10;44.70;;;;;;5429575;26;20462;-62
2024/04/12 09:27:22;;;;;;;1.50;1.05;;;23.10;45.20;;;;;;5431297;26;20014;-61
2024/04/12 09:29:58;;;;;;;1.38;0.95;;;23.10;44.70;;;;;;5431047;26;20003;-61
2024/04/12 09:35:13;;;;;;;2.22;1.02;;;23.10;44.70;;;;;;5426771;26;20010;-61
2024/04/12 09:37:54;;;;;;;2.00;1.00;;;23.10;44.70;;;;;;5430833;26;19999;-61
2024/04/12 09:40:28;;;;;;;1.70;1.10;;;23.10;44.70;;;;;;5430738;26;20343;-61
2024/04/12 09:45:27;;;;;;;1.98;1.02;;;23.10;44.70;;;;;;5429743;26;20035;-62
2024/04/12 10:38:44;;;;;;;1.40;1.00;;;23.10;44.90;;;;;;5427469;26;20010;-61
2024/04/12 10:41:10;;;;;;;1.60;0.90;;;23.10;44.90;;;;;;5427810;26;20003;-61
2024/04/12 10:43:38;;;;;;;2.08;1.17;;;23.10;44.90;;;;;;5427031;26;19996;-61
2024/04/12 10:46:10;;;;;;;1.60;1.02;;;23.20;45.00;;;;;;5429023;26;20010;-61
2024/04/12 10:48:37;;;;;;;1.75;1.02;;;23.10;45.00;;;;;;5422728;26;20072;-61
2024/04/12 10:51:06;;;;;;;1.13;0.90;;;23.10;45.00;;;;;;5427586;26;20011;-60
2024/04/12 10:53:33;;;;;;;1.35;0.90;;;23.10;45.00;;;;;;5432793;26;20013;-60
2024/04/12 10:56:02;;;;;;;1.73;0.90;;;23.10;45.00;;;;;;5425952;26;20431;-60
2024/04/12 10:58:33;;;;;;;1.42;0.95;;;23.20;44.90;;;;;;5428082;26;20222;-61
2024/04/12 11:01:05;;;;;;;1.48;1.10;;;23.10;44.60;;;;;;5430056;26;20413;-61
2024/04/12 11:03:38;;;;;;;1.23;0.98;;;23.10;44.20;;;;;;5431012;26;20557;-60
2024/04/12 11:06:17;;;;;;;1.17;0.93;;;23.10;43.90;;;;;;5431552;26;19998;-62
2024/04/12 11:08:45;;;;;;;1.63;1.10;;;23.10;43.60;;;;;;5430081;26;20003;-61
2024/04/12 11:11:19;;;;;;;1.58;0.98;;;23.10;43.70;;;;;;5427407;26;20337;-61
2024/04/12 11:13:47;;;;;;;1.83;1.00;;;23.10;43.60;;;;;;5425773;26;20027;-61
2024/04/12 11:33:04;;;;;;;1.70;1.10;;;23.10;41.40;;;;;;5423752;26;20006;-62
2024/04/12 11:35:31;;;;;;;2.75;1.40;;;23.10;39.90;;;;;;5429056;26;20342;-62
2024/04/12 11:37:57;;;;;;;2.10;1.10;;;23.10;40.10;;;;;;5433340;26;20003;-62
2024/04/12 11:40:25;;;;;;;1.88;1.00;;;23.10;39.90;;;;;;5429500;26;20415;-62
2024/04/12 11:42:56;;;;;;;2.25;1.10;;;23.10;39.40;;;;;;5430357;26;20454;-62
2024/04/12 11:45:25;;;;;;;2.00;1.20;;;23.10;39.10;;;;;;5429462;26;20014;-62
2024/04/12 11:47:51;;;;;;;2.35;1.10;;;23.10;38.80;;;;;;5425995;26;20011;-61
2024/04/12 11:50:17;;;;;;;2.38;1.10;;;23.10;38.20;;;;;;5427234;26;20015;-62
2024/04/12 11:52:43;;;;;;;2.08;1.10;;;23.10;38.20;;;;;;5428139;26;20002;-62
2024/04/12 11:55:12;;;;;;;2.30;1.02;;;23.10;38.00;;;;;;5432073;26;20017;-62
2024/04/12 11:57:41;;;;;;;1.77;1.10;;;23.10;38.20;;;;;;5427169;26;20100;-62
2024/04/12 12:00:11;;;;;;;1.73;0.93;;;23.10;38.30;;;;;;5430228;26;20022;-62
2024/04/12 12:02:37;;;;;;;2.78;1.15;;;23.10;38.40;;;;;;5428260;26;20341;-62
2024/04/12 12:05:06;;;;;;;2.03;1.00;;;23.10;39.50;;;;;;5427458;26;19999;-62
2024/04/12 12:07:32;;;;;;;1.42;0.90;;;23.10;39.70;;;;;;5430058;26;20026;-62
2024/04/12 12:09:57;;;;;;;1.85;1.00;;;23.10;39.10;;;;;;5430342;26;20002;-62
2024/04/12 12:12:26;;;;;;;2.25;1.10;;;23.10;38.60;;;;;;5436519;26;20072;-62
2024/04/12 12:14:51;;;;;;;2.10;1.20;;;23.10;38.20;;;;;;5433404;26;20026;-62
2024/04/12 12:17:18;;;;;;;2.33;1.20;;;23.10;38.00;;;;;;5431145;26;20272;-62
2024/04/12 12:19:51;;;;;;;2.00;1.10;;;23.00;38.10;;;;;;5426061;26;20470;-62
2024/04/12 12:22:18;;;;;;;1.52;1.00;;;23.00;37.70;;;;;;5432040;26;20536;-62
2024/04/12 12:24:44;;;;;;;1.63;0.95;;;23.00;38.00;;;;;;5429217;26;20093;-62
2024/04/12 12:27:10;;;;;;;2.45;1.02;;;23.10;37.70;;;;;;5430986;26;21138;-62
2024/04/12 12:29:42;;;;;;;2.13;1.02;;;23.00;38.20;;;;;;5426407;26;20026;-62
2024/04/12 12:32:08;;;;;;;2.35;1.00;;;23.10;38.20;;;;;;5426672;26;20073;-61
2024/04/12 12:34:34;;;;;;;1.48;0.93;;;23.10;38.20;;;;;;5423543;26;20021;-61
2024/04/12 12:37:04;;;;;;;1.73;0.80;;;23.00;37.80;;;;;;5431269;26;20003;-61
2024/04/12 12:39:33;;;;;;;2.45;1.10;;;23.10;37.60;;;;;;5431352;26;20003;-61
2024/04/12 12:42:04;;;;;;;2.13;1.00;;;23.00;36.80;;;;;;5428301;26;20050;-61
2024/04/12 12:44:29;;;;;;;1.30;0.80;;;23.00;36.30;;;;;;5429168;26;19999;-61
2024/04/12 12:46:59;;;;;;;2.40;1.05;;;23.00;36.80;;;;;;5429050;26;20548;-61
2024/04/12 12:49:25;;;;;;;2.35;1.05;;;23.00;36.30;;;;;;5429105;26;20019;-61
2024/04/12 12:51:52;;;;;;;2.22;1.08;;;23.00;36.30;;;;;;5433902;26;20003;-61
2024/04/12 12:54:18;;;;;;;2.13;1.10;;;23.00;36.50;;;;;;5434312;26;20009;-61
2024/04/12 12:56:45;;;;;;;1.80;1.15;;;23.00;37.00;;;;;;5432088;26;20014;-61
2024/04/12 12:59:10;;;;;;;1.33;1.00;;;23.00;36.50;;;;;;5428484;26;19999;-61
2024/04/12 13:01:36;;;;;;;1.40;0.98;;;23.00;36.20;;;;;;5427616;26;20362;-61
2024/04/12 13:04:07;;;;;;;1.98;1.20;;;23.00;36.00;;;;;;5425649;26;20497;-61
2024/04/12 13:06:34;;;;;;;2.03;1.08;;;23.00;36.20;;;;;;5427927;26;20010;-60
2024/04/12 13:09:00;;;;;;;2.28;1.00;;;23.00;36.60;;;;;;5432539;26;20000;-60
2024/04/12 13:11:26;;;;;;;1.95;1.05;;;23.00;36.60;;;;;;5430734;26;20005;-61
2024/04/12 13:13:53;;;;;;;2.00;1.10;;;23.00;36.60;;;;;;5431638;26;20002;-61
2024/04/12 13:16:19;;;;;;;1.92;0.90;;;23.00;36.90;;;;;;5432399;26;20466;-60
2024/04/12 13:18:45;;;;;;;1.67;1.00;;;23.00;36.90;;;;;;5429310;26;19995;-61
2024/04/12 13:21:12;;;;;;;1.63;0.82;;;23.00;37.00;;;;;;5430101;26;19990;-61
2024/04/12 13:23:42;;;;;;;1.55;1.00;;;23.00;37.50;;;;;;5434033;26;20027;-61
2024/04/12 13:26:08;;;;;;;2.28;1.08;;;23.00;37.70;;;;;;5431408;26;20003;-61
2024/04/12 13:28:35;;;;;;;2.28;1.00;;;23.00;38.00;;;;;;5433248;26;20006;-61
2024/04/12 13:31:01;;;;;;;2.50;0.90;;;23.00;38.20;;;;;;5428093;26;20046;-61
2024/04/12 13:33:27;;;;;;;2.20;1.10;;;23.00;38.20;;;;;;5428192;26;20076;-61
2024/04/12 13:35:54;;;;;;;1.38;1.00;;;23.00;38.20;;;;;;5429514;26;20007;-61
2024/04/12 13:38:20;;;;;;;2.65;1.27;;;23.00;37.90;;;;;;5432469;26;20460;-61
2024/04/12 13:40:47;;;;;;;2.33;1.25;;;23.00;38.00;;;;;;5431216;26;20092;-62
2024/04/12 13:43:16;;;;;;;2.25;1.00;;;23.00;38.60;;;;;;5424476;26;20014;-62
2024/04/12 13:51:18;;;;;;;1.90;1.13;;;23.00;37.70;;;;;;5428877;26;20100;-61
2024/04/12 13:53:50;;;;;;;2.65;1.30;;;23.00;37.20;;;;;;5429795;26;20003;-61
2024/04/12 13:56:20;;;;;;;2.42;1.20;;;23.00;37.80;;;;;;5429444;26;19999;-61
2024/04/12 13:59:07;;;;;;;2.15;1.10;;;23.00;37.70;;;;;;5429196;26;20175;-61
2024/04/12 14:01:33;;;;;;;1.88;1.17;;;23.00;37.10;;;;;;5429334;26;20004;-61
2024/04/12 14:04:04;;;;;;;3.63;1.60;;;23.00;37.30;;;;;;5428122;26;20003;-61
2024/04/12 14:06:36;;;;;;;1.70;1.10;;;23.00;36.90;;;;;;5428379;26;20000;-61
2024/04/12 14:09:09;;;;;;;1.48;1.20;;;23.00;37.80;;;;;;5424454;26;20640;-61
2024/04/12 14:11:38;;;;;;;2.10;1.20;;;23.00;38.10;;;;;;5427475;26;20006;-61
2024/04/12 14:14:03;;;;;;;2.28;1.17;;;23.00;38.40;;;;;;5428583;26;20440;-62
2024/04/12 14:16:32;;;;;;;2.30;1.33;;;23.00;38.40;;;;;;5428730;26;20105;-62
2024/04/12 14:19:01;;;;;;;2.45;1.17;;;23.00;38.20;;;;;;5427648;26;20018;-61
2024/04/12 14:21:27;;;;;;;3.03;1.30;;;23.00;38.90;;;;;;5432447;26;20014;-61
2024/04/12 14:23:53;;;;;;;3.65;1.30;;;23.10;39.00;;;;;;5430755;26;20467;-61
2024/04/12 14:26:19;;;;;;;1.55;0.95;;;23.00;38.50;;;;;;5426984;26;20114;-61
2024/04/12 14:28:45;;;;;;;1.67;1.10;;;23.10;39.10;;;;;;5431425;26;20007;-62
2024/04/12 14:31:11;;;;;;;1.88;1.10;;;23.10;38.80;;;;;;5427378;26;20486;-61